Time;durP1;ratioP1;P1;durP2;ratioP2;P2;SDS_P1;SDS_P2;PMS_P1;PMS_P2;Temp;Humidity;BMP_temperature;BMP_pressure;BME280_temperature;BME280_humidity;BME280_pressure;Samples;Min_cycle;Max_cycle;Signal;HPM_P1;HPM_P2
2024/01/26 00:04:49;;;;;;;28.65;7.20;;;;;;;7.02;100.00;101211.31;10473113;28;20055;-80
2024/01/26 00:09:55;;;;;;;27.52;6.35;;;;;;;7.01;100.00;101206.91;10470013;28;20048;-79
2024/01/26 00:14:58;;;;;;;29.42;6.80;;;;;;;7.03;100.00;101205.03;10489661;28;20048;-80
2024/01/26 00:20:01;;;;;;;27.08;7.00;;;;;;;7.01;100.00;101198.91;10479266;28;20079;-79
2024/01/26 00:25:07;;;;;;;22.92;6.80;;;;;;;7.03;100.00;101199.69;10471692;28;20052;-80
2024/01/26 00:30:10;;;;;;;20.30;5.97;;;;;;;6.95;100.00;101197.41;10472030;28;20186;-80
2024/01/26 00:35:13;;;;;;;25.50;6.78;;;;;;;6.85;100.00;101199.66;10457835;28;20040;-80
2024/01/26 00:40:18;;;;;;;21.13;6.97;;;;;;;6.78;100.00;101192.94;10466504;28;20065;-79
2024/01/26 00:45:21;;;;;;;26.52;7.75;;;;;;;6.70;100.00;101192.47;10472822;28;20048;-80
2024/01/26 00:50:24;;;;;;;21.33;7.30;;;;;;;6.79;100.00;101180.44;10461042;28;20048;-80
2024/01/26 00:55:29;;;;;;;22.25;6.60;;;;;;;6.81;100.00;101176.75;10463075;28;20040;-79
2024/01/26 01:00:32;;;;;;;19.67;6.93;;;;;;;6.76;100.00;101184.13;10464149;28;20159;-80
2024/01/26 01:05:35;;;;;;;18.67;6.55;;;;;;;6.84;100.00;101173.91;10466225;28;21301;-79
2024/01/26 01:10:40;;;;;;;21.65;7.80;;;;;;;6.85;100.00;101170.28;10505894;28;20047;-80
2024/01/26 01:15:43;;;;;;;17.33;7.68;;;;;;;6.88;100.00;101165.78;10473721;28;20173;-80
2024/01/26 01:20:46;;;;;;;18.15;8.10;;;;;;;6.88;100.00;101158.63;10461209;28;20455;-79
2024/01/26 01:25:51;;;;;;;20.40;8.88;;;;;;;6.96;100.00;101161.75;10463108;28;20428;-79
2024/01/26 01:30:54;;;;;;;20.85;9.35;;;;;;;6.85;100.00;101159.59;10471321;28;20036;-79
2024/01/26 01:35:57;;;;;;;22.40;9.18;;;;;;;7.02;100.00;101155.19;10474095;28;20056;-80
2024/01/26 01:41:02;;;;;;;21.33;9.60;;;;;;;7.10;100.00;101146.78;10450311;28;20056;-80
2024/01/26 01:46:06;;;;;;;25.40;11.00;;;;;;;7.14;100.00;101137.66;10456840;28;20049;-80
2024/01/26 01:51:09;;;;;;;18.80;9.50;;;;;;;6.89;100.00;101141.66;10461610;28;20055;-79
2024/01/26 01:56:15;;;;;;;26.90;12.27;;;;;;;7.03;100.00;101138.25;10460907;28;20095;-82
2024/01/26 02:01:19;;;;;;;26.77;11.43;;;;;;;7.03;100.00;101133.75;10444208;28;20049;-80
2024/01/26 02:06:22;;;;;;;21.98;10.43;;;;;;;7.01;100.00;101132.97;10479255;28;20041;-80
2024/01/26 02:11:26;;;;;;;27.55;10.98;;;;;;;7.06;100.00;101128.25;10458603;28;20052;-80
2024/01/26 02:16:29;;;;;;;21.98;12.10;;;;;;;7.04;100.00;101111.44;10457774;28;20412;-80
2024/01/26 02:21:32;;;;;;;27.52;10.32;;;;;;;7.12;100.00;101105.66;10457462;28;20055;-80
2024/01/26 02:26:37;;;;;;;17.00;10.20;;;;;;;7.19;100.00;101093.72;10453052;28;20052;-79
2024/01/26 02:31:40;;;;;;;20.73;8.68;;;;;;;7.12;100.00;101091.47;10456525;28;20052;-80
2024/01/26 02:36:43;;;;;;;16.33;8.27;;;;;;;7.18;100.00;101093.78;10457078;28;20044;-81
2024/01/26 02:41:47;;;;;;;17.55;8.65;;;;;;;7.18;100.00;101097.31;10456430;28;20052;-80
2024/01/26 02:46:50;;;;;;;16.10;9.02;;;;;;;7.06;100.00;101104.19;10455404;28;20056;-80
2024/01/26 02:51:53;;;;;;;16.98;9.52;;;;;;;7.21;100.00;101093.59;10453634;28;20048;-80
2024/01/26 02:56:58;;;;;;;18.60;9.80;;;;;;;7.23;100.00;101089.03;10457040;28;20049;-81
2024/01/26 03:02:02;;;;;;;20.75;10.52;;;;;;;7.21;100.00;101086.47;10455102;28;20537;-81
2024/01/26 03:07:05;;;;;;;21.80;11.20;;;;;;;7.30;100.00;101068.19;10455927;28;20769;-82
2024/01/26 03:12:09;;;;;;;26.85;12.95;;;;;;;7.23;100.00;101076.53;10457107;28;20040;-78
2024/01/26 03:17:12;;;;;;;26.45;13.38;;;;;;;7.41;100.00;101066.63;10452499;28;20052;-80
2024/01/26 03:22:15;;;;;;;28.85;15.25;;;;;;;7.44;100.00;101065.59;10469734;28;20033;-81
2024/01/26 03:27:19;;;;;;;26.10;13.90;;;;;;;7.61;100.00;101051.25;10493541;28;20032;-82
2024/01/26 03:32:22;;;;;;;35.38;16.05;;;;;;;7.41;100.00;101050.59;10491111;28;20045;-81
2024/01/26 03:37:25;;;;;;;37.40;16.75;;;;;;;7.46;100.00;101035.16;10484919;28;20039;-80
2024/01/26 03:42:30;;;;;;;36.20;16.60;;;;;;;7.49;100.00;101029.63;10488646;28;20055;-82
2024/01/26 03:47:33;;;;;;;36.60;14.93;;;;;;;7.38;100.00;101020.53;10486257;28;20041;-82
2024/01/26 03:52:36;;;;;;;29.33;15.32;;;;;;;7.61;100.00;101008.47;10462810;28;20449;-82
2024/01/26 03:57:40;;;;;;;29.77;16.55;;;;;;;7.38;100.00;101004.47;10461725;28;20055;-81
2024/01/26 04:02:45;;;;;;;29.75;15.00;;;;;;;7.44;100.00;101002.31;10452654;28;20049;-80
2024/01/26 04:07:48;;;;;;;28.48;15.65;;;;;;;7.52;100.00;100995.66;10452451;28;20746;-82
2024/01/26 04:12:52;;;;;;;28.25;13.27;;;;;;;7.46;100.00;101010.22;10462344;28;20045;-81
2024/01/26 04:17:56;;;;;;;29.02;14.50;;;;;;;7.36;100.00;100993.88;10468464;28;20052;-80
2024/01/26 04:22:59;;;;;;;36.53;17.02;;;;;;;7.56;100.00;100991.84;10462324;28;20049;-82
2024/01/26 04:28:04;;;;;;;27.77;13.05;;;;;;;7.45;100.00;100996.00;10461536;28;20044;-82
2024/01/26 04:33:07;;;;;;;25.90;13.07;;;;;;;7.47;100.00;100983.41;10461813;28;20045;-82
2024/01/26 04:38:10;;;;;;;22.77;11.95;;;;;;;7.49;100.00;100969.97;10463671;28;20581;-82
2024/01/26 04:43:15;;;;;;;37.90;17.95;;;;;;;7.54;100.00;100953.63;10460504;28;20049;-81
2024/01/26 04:48:18;;;;;;;34.45;17.35;;;;;;;7.74;100.00;100939.94;10467422;28;20512;-81
2024/01/26 04:53:21;;;;;;;34.97;16.95;;;;;;;7.63;100.00;100924.53;10462366;28;20572;-82
2024/01/26 04:58:26;;;;;;;41.28;18.65;;;;;;;7.69;100.00;100934.88;10464849;28;20048;-82
2024/01/26 05:03:29;;;;;;;36.17;17.73;;;;;;;7.75;100.00;100925.59;10461863;28;20049;-82
2024/01/26 05:08:32;;;;;;;35.45;16.38;;;;;;;7.86;100.00;100914.25;10455997;28;20055;-81
2024/01/26 05:13:36;;;;;;;33.03;18.70;;;;;;;7.59;100.00;100917.63;10459752;28;20875;-82
2024/01/26 05:18:39;;;;;;;36.50;20.10;;;;;;;7.90;100.00;100926.50;10463805;28;20531;-81
2024/01/26 05:23:42;;;;;;;28.58;15.60;;;;;;;7.87;100.00;100900.81;10450712;28;20090;-82
2024/01/26 05:28:47;;;;;;;32.25;17.55;;;;;;;7.87;100.00;100897.25;10455425;28;20064;-83
2024/01/26 05:33:50;;;;;;;32.47;17.15;;;;;;;7.94;100.00;100880.72;10456460;28;20052;-82
2024/01/26 05:38:53;;;;;;;31.70;18.17;;;;;;;7.87;100.00;100852.66;10461357;28;21201;-82
2024/01/26 05:43:58;;;;;;;29.08;16.35;;;;;;;7.89;100.00;100842.69;10457202;28;20140;-82
2024/01/26 05:49:01;;;;;;;27.13;15.70;;;;;;;7.93;100.00;100827.34;10459378;28;20050;-82
2024/01/26 05:54:09;;;;;;;24.38;14.75;;;;;;;8.14;100.00;100844.69;10461498;28;20516;-81
2024/01/26 05:59:13;;;;;;;25.25;14.20;;;;;;;8.06;100.00;100864.84;10462092;28;20059;-82
2024/01/26 06:04:16;;;;;;;24.17;14.18;;;;;;;8.23;100.00;100858.44;10456178;28;20087;-81
2024/01/26 06:09:19;;;;;;;20.60;12.38;;;;;;;7.87;100.00;100849.09;10452545;28;20527;-83
2024/01/26 06:14:24;;;;;;;15.13;9.25;;;;;;;7.91;100.00;100851.50;10457847;28;20125;-80
2024/01/26 06:19:27;;;;;;;15.02;9.18;;;;;;;8.01;100.00;100859.81;10461060;28;20519;-81
2024/01/26 06:24:30;;;;;;;22.38;12.55;;;;;;;8.22;100.00;100867.44;10459300;28;21093;-81
2024/01/26 06:29:35;;;;;;;20.73;12.05;;;;;;;8.38;100.00;100844.06;10480150;28;20076;-82
2024/01/26 06:34:40;;;;;;;15.95;10.48;;;;;;;8.27;100.00;100831.38;10456719;28;21080;-80
2024/01/26 06:39:43;;;;;;;19.85;12.00;;;;;;;8.16;100.00;100820.50;10458464;28;20137;-81
2024/01/26 06:44:48;;;;;;;19.30;11.65;;;;;;;8.43;100.00;100800.97;10453676;28;20048;-82
2024/01/26 06:49:51;;;;;;;14.00;8.32;;;;;;;8.21;100.00;100828.25;10451235;28;20044;-81
2024/01/26 06:54:54;;;;;;;16.15;9.05;;;;;;;8.00;100.00;100801.88;10460159;28;20060;-81
2024/01/26 06:59:58;;;;;;;13.50;9.70;;;;;;;8.46;100.00;100768.66;10445721;28;20057;-81
2024/01/26 07:05:01;;;;;;;13.55;10.20;;;;;;;8.56;100.00;100757.22;10455283;28;20070;-81
2024/01/26 07:10:05;;;;;;;15.75;8.00;;;;;;;8.68;100.00;100757.38;10456508;28;20128;-81
2024/01/26 07:15:10;;;;;;;13.45;9.23;;;;;;;8.60;100.00;100763.22;10456335;28;20759;-82
2024/01/26 07:20:13;;;;;;;10.43;7.32;;;;;;;8.25;100.00;100771.72;10452711;28;20052;-82
2024/01/26 07:25:19;;;;;;;14.18;8.80;;;;;;;8.35;100.00;100754.13;10458915;28;20711;-81
2024/01/26 07:30:23;;;;;;;10.93;7.07;;;;;;;8.50;100.00;100749.63;10459290;28;20547;-82
2024/01/26 07:35:26;;;;;;;13.75;8.70;;;;;;;8.54;100.00;100740.41;10447650;28;20055;-82
2024/01/26 07:40:29;;;;;;;14.20;9.25;;;;;;;8.70;100.00;100710.78;10441078;28;20048;-82
2024/01/26 07:45:33;;;;;;;14.05;8.85;;;;;;;8.78;100.00;100705.75;10437803;28;20044;-81
2024/01/26 07:50:37;;;;;;;13.82;8.60;;;;;;;8.41;100.00;100702.00;10454065;28;20052;-81
2024/01/26 07:55:41;;;;;;;14.95;10.00;;;;;;;8.53;100.00;100684.25;10464916;28;20052;-80
2024/01/26 08:00:47;;;;;;;14.45;9.77;;;;;;;8.64;100.00;100694.25;10472593;28;21684;-79
2024/01/26 08:05:50;;;;;;;18.60;10.15;;;;;;;8.69;100.00;100668.88;10457357;28;20048;-80
2024/01/26 08:10:54;;;;;;;15.48;9.68;;;;;;;8.23;100.00;100665.72;10467135;28;20163;-80
2024/01/26 08:15:58;;;;;;;13.48;8.95;;;;;;;8.31;100.00;100656.25;10462952;28;20052;-80
2024/01/26 08:21:01;;;;;;;14.27;7.88;;;;;;;8.32;100.00;100662.47;10466548;28;20183;-82
2024/01/26 08:26:05;;;;;;;16.45;8.27;;;;;;;8.49;100.00;100653.31;10468880;28;20136;-82
2024/01/26 08:31:10;;;;;;;13.32;7.97;;;;;;;8.43;100.00;100659.91;10467844;28;20049;-79
2024/01/26 08:36:13;;;;;;;10.90;6.35;;;;;;;8.30;100.00;100645.63;10496548;28;20052;-81
2024/01/26 08:41:17;;;;;;;11.85;6.85;;;;;;;8.26;100.00;100628.94;10525721;28;20063;-82
2024/01/26 08:46:21;;;;;;;18.77;7.25;;;;;;;8.36;100.00;100626.47;10486849;28;20048;-81
2024/01/26 08:51:25;;;;;;;13.70;6.20;;;;;;;8.21;100.00;100628.38;10495054;28;20047;-81
2024/01/26 08:56:29;;;;;;;9.60;5.95;;;;;;;8.15;100.00;100612.75;10505637;27;20044;-82
2024/01/26 09:01:36;;;;;;;8.50;5.40;;;;;;;8.17;100.00;100633.09;10469809;28;20102;-81
2024/01/26 09:06:46;;;;;;;11.70;6.00;;;;;;;8.30;100.00;100617.06;10476723;28;20052;-83
2024/01/26 09:11:59;;;;;;;6.20;4.80;;;;;;;8.29;100.00;100617.19;10475844;28;20130;-82
2024/01/26 09:17:08;;;;;;;6.90;4.53;;;;;;;8.20;100.00;100617.78;10495417;28;20052;-83
2024/01/26 09:22:11;;;;;;;6.35;3.33;;;;;;;7.95;100.00;100608.72;10487398;28;20052;-83
2024/01/26 09:27:16;;;;;;;7.47;4.47;;;;;;;8.09;100.00;100602.44;10464767;28;20130;-83
2024/01/26 09:32:21;;;;;;;6.93;4.43;;;;;;;8.01;100.00;100618.16;10484999;28;20054;-82
2024/01/26 09:37:25;;;;;;;7.20;4.05;;;;;;;8.24;100.00;100611.28;10487734;28;20097;-80
2024/01/26 09:42:29;;;;;;;2.13;1.92;;;;;;;7.88;100.00;100618.13;10497764;28;20111;-83
2024/01/26 09:47:36;;;;;;;4.80;4.15;;;;;;;8.22;100.00;100603.34;10475822;28;20139;-81
2024/01/26 09:52:40;;;;;;;7.05;4.10;;;;;;;8.36;100.00;100613.09;10474501;28;20068;-79
2024/01/26 09:57:44;;;;;;;3.00;2.28;;;;;;;8.00;100.00;100616.44;10485842;28;20044;-79
2024/01/26 10:02:50;;;;;;;9.13;3.90;;;;;;;8.27;100.00;100611.91;10453084;28;20140;-79
2024/01/26 10:07:53;;;;;;;3.33;2.25;;;;;;;8.10;100.00;100601.50;10477671;28;20052;-81
2024/01/26 10:12:57;;;;;;;4.07;2.30;;;;;;;8.14;100.00;100611.03;10446419;28;20044;-81
2024/01/26 10:18:02;;;;;;;4.60;2.67;;;;;;;8.23;100.00;100596.16;10468304;28;20528;-80
2024/01/26 10:23:06;;;;;;;3.60;3.30;;;;;;;8.25;100.00;100599.59;10477964;28;20103;-82
2024/01/26 10:28:10;;;;;;;3.42;2.80;;;;;;;8.26;100.00;100577.25;10476699;28;20067;-83
2024/01/26 10:33:15;;;;;;;7.10;5.38;;;;;;;8.48;100.00;100584.69;10466381;28;20049;-80
2024/01/26 10:38:20;;;;;;;6.38;5.00;;;;;;;8.48;100.00;100564.13;10472209;28;20064;-82
2024/01/26 10:43:25;;;;;;;5.93;4.70;;;;;;;8.57;100.00;100565.28;10472133;28;20048;-82
2024/01/26 10:48:30;;;;;;;5.43;3.15;;;;;;;8.74;100.00;100556.06;10445410;28;20304;-82
2024/01/26 10:53:35;;;;;;;10.40;7.72;;;;;;;8.99;100.00;100550.66;10478155;28;20131;-80
2024/01/26 10:58:38;;;;;;;5.22;4.72;;;;;;;8.53;100.00;100548.59;10465530;28;20041;-80
2024/01/26 11:03:44;;;;;;;8.13;6.03;;;;;;;8.44;100.00;100533.13;10465878;28;20084;-80
2024/01/26 11:08:47;;;;;;;10.57;9.48;;;;;;;8.73;100.00;100522.22;10466105;28;20530;-81
2024/01/26 11:14:02;;;;;;;7.95;7.13;;;;;;;8.72;100.00;100531.22;10458520;28;21581;-78
2024/01/26 11:19:06;;;;;;;10.25;5.72;;;;;;;8.61;100.00;100507.88;10471527;28;20063;-79
2024/01/26 11:24:16;;;;;;;8.73;7.93;;;;;;;8.67;100.00;100523.53;10464292;28;20125;-79
2024/01/26 11:29:19;;;;;;;7.28;5.80;;;;;;;8.86;100.00;100528.44;10461675;28;20036;-79
2024/01/26 11:34:24;;;;;;;10.68;8.80;;;;;;;8.55;100.00;100529.72;10472231;28;20052;-79
2024/01/26 11:39:28;;;;;;;7.35;6.65;;;;;;;8.51;100.00;100563.91;10466630;28;20435;-79
2024/01/26 11:44:36;;;;;;;3.47;1.30;;;;;;;8.32;100.00;100643.72;10471390;28;20697;-79
2024/01/26 11:49:42;;;;;;;2.42;0.38;;;;;;;6.78;100.00;100658.88;10468217;28;20118;-80
2024/01/26 11:54:47;;;;;;;1.70;0.30;;;;;;;6.73;100.00;100674.31;10464158;28;20768;-79
2024/01/26 11:59:50;;;;;;;0.93;0.20;;;;;;;6.68;100.00;100684.41;10462427;28;20052;-80
2024/01/26 12:04:56;;;;;;;1.92;0.30;;;;;;;6.35;100.00;100697.94;10474744;28;20063;-80
2024/01/26 12:09:59;;;;;;;0.82;0.30;;;;;;;6.45;100.00;100736.50;10470729;28;20037;-80
2024/01/26 12:15:04;;;;;;;3.05;0.28;;;;;;;6.77;100.00;100747.91;10458175;28;21046;-81
2024/01/26 12:20:11;;;;;;;1.95;0.47;;;;;;;7.42;100.00;100741.38;10465669;28;20041;-80
2024/01/26 12:25:15;;;;;;;1.27;0.30;;;;;;;7.66;100.00;100747.03;10475349;28;20040;-77
2024/01/26 12:30:18;;;;;;;5.82;0.40;;;;;;;7.74;100.00;100768.78;10454988;28;20048;-81
2024/01/26 12:35:25;;;;;;;2.83;0.80;;;;;;;7.28;100.00;100776.97;10464254;28;20053;-81
2024/01/26 12:40:28;;;;;;;4.32;0.40;;;;;;;7.22;100.00;100796.06;10472503;28;20052;-80
2024/01/26 12:45:31;;;;;;;3.95;1.00;;;;;;;6.88;100.00;100799.88;10475979;28;20182;-82
2024/01/26 12:50:35;;;;;;;3.92;1.35;;;;;;;7.04;100.00;100819.38;10480049;28;20160;-80
2024/01/26 12:55:38;;;;;;;6.82;0.73;;;;;;;7.10;100.00;100815.50;10477166;28;20060;-80
2024/01/26 13:00:41;;;;;;;10.95;1.63;;;;;;;8.84;100.00;100822.34;10496155;28;20048;-81
2024/01/26 13:05:46;;;;;;;6.18;0.82;;;;;;;7.93;99.24;100856.75;10479197;28;20055;-81
2024/01/26 13:10:50;;;;;;;6.95;1.33;;;;;;;7.98;100.00;100875.19;10488438;28;21272;-81
2024/01/26 13:15:53;;;;;;;8.32;1.10;;;;;;;8.06;95.79;100879.09;10486014;28;20057;-80
2024/01/26 13:20:57;;;;;;;7.53;1.42;;;;;;;8.86;88.88;100906.16;10476238;28;20044;-81
2024/01/26 13:26:02;;;;;;;12.30;1.67;;;;;;;9.16;83.43;100923.81;10470638;28;20057;-79
2024/01/26 13:31:05;;;;;;;10.23;1.55;;;;;;;9.83;84.15;100924.63;10478430;28;20055;-81
2024/01/26 13:36:10;;;;;;;7.40;1.48;;;;;;;8.95;82.37;100947.56;10468250;28;20037;-81
2024/01/26 13:41:13;;;;;;;5.20;1.35;;;;;;;8.15;85.52;100944.56;10479491;28;20052;-80
2024/01/26 13:46:16;;;;;;;7.60;1.58;;;;;;;7.64;87.64;100958.34;10473200;28;20056;-79
2024/01/26 13:51:20;;;;;;;7.13;1.25;;;;;;;7.19;91.39;100978.81;10474372;28;20083;-82
2024/01/26 13:56:23;;;;;;;8.38;1.50;;;;;;;7.24;97.66;101000.78;10469722;28;20111;-80
2024/01/26 14:01:26;;;;;;;15.98;2.03;;;;;;;6.62;100.00;101013.13;10463786;28;20061;-82
2024/01/26 14:06:31;;;;;;;11.13;1.60;;;;;;;6.09;94.68;101035.53;10481495;28;20073;-79
2024/01/26 14:11:36;;;;;;;14.38;1.40;;;;;;;6.48;90.14;101058.41;10477960;28;20134;-80
2024/01/26 14:16:40;;;;;;;7.03;1.10;;;;;;;6.40;87.99;101066.81;10472140;28;20059;-80
2024/01/26 14:21:44;;;;;;;8.02;1.58;;;;;;;6.22;87.21;101071.28;10460124;28;20052;-79
2024/01/26 14:26:47;;;;;;;11.27;1.65;;;;;;;6.43;88.59;101077.31;10458432;28;21187;-78
2024/01/26 14:31:52;;;;;;;6.60;1.30;;;;;;;5.99;93.17;101079.63;10466282;28;20052;-79
2024/01/26 14:36:58;;;;;;;6.55;1.65;;;;;;;6.04;90.99;101081.13;10465982;28;20100;-81
2024/01/26 14:42:02;;;;;;;10.35;1.20;;;;;;;5.74;94.37;101128.84;10467426;28;20481;-80
2024/01/26 14:47:05;;;;;;;12.40;1.85;;;;;;;5.88;92.05;101145.03;10471636;28;20041;-79
2024/01/26 14:52:10;;;;;;;12.05;1.50;;;;;;;6.27;91.46;101135.94;10465190;28;20048;-80
2024/01/26 14:57:13;;;;;;;7.00;1.55;;;;;;;6.08;91.43;101157.34;10475118;28;20052;-79
2024/01/26 15:02:17;;;;;;;6.55;1.40;;;;;;;5.68;93.13;101151.34;10464558;28;20171;-79
2024/01/26 15:07:22;;;;;;;8.40;1.40;;;;;;;6.02;92.05;101173.69;10484601;28;20040;-80
2024/01/26 15:12:25;;;;;;;10.82;1.08;;;;;;;5.46;100.00;101204.81;10458889;28;20083;-79
2024/01/26 15:17:28;;;;;;;11.23;2.28;;;;;;;5.31;100.00;101233.94;10459455;28;20045;-78
2024/01/26 15:22:33;;;;;;;6.85;2.28;;;;;;;5.26;100.00;101234.16;10456870;28;20047;-79
2024/01/26 15:27:37;;;;;;;11.38;1.40;;;;;;;4.78;100.00;101270.84;10459923;28;20052;-79
2024/01/26 15:32:40;;;;;;;7.15;1.10;;;;;;;4.36;100.00;101279.69;10467694;28;20055;-79
2024/01/26 15:37:44;;;;;;;9.30;1.15;;;;;;;4.72;100.00;101296.88;10462481;28;20044;-78
2024/01/26 15:42:47;;;;;;;14.70;2.00;;;;;;;4.84;100.00;101314.97;10460991;28;20048;-78
2024/01/26 15:47:51;;;;;;;7.32;2.00;;;;;;;4.81;100.00;101320.44;10469873;28;20059;-78
2024/01/26 15:52:56;;;;;;;15.07;1.92;;;;;;;4.94;100.00;101332.28;10459801;28;20049;-79
2024/01/26 15:57:59;;;;;;;10.93;1.65;;;;;;;5.15;100.00;101343.84;10488444;28;20511;-79
2024/01/26 16:03:03;;;;;;;8.35;1.67;;;;;;;4.97;100.00;101348.13;10460973;28;20055;-79
2024/01/26 16:08:07;;;;;;;9.27;1.65;;;;;;;4.90;100.00;101346.66;10473346;28;20052;-79
2024/01/26 16:13:11;;;;;;;11.32;1.85;;;;;;;5.26;100.00;101378.88;10478154;28;20068;-79
2024/01/26 16:18:14;;;;;;;10.15;1.90;;;;;;;5.12;100.00;101397.25;10463451;28;20043;-79
2024/01/26 16:23:18;;;;;;;8.60;1.58;;;;;;;4.81;100.00;101403.81;10463151;28;20040;-80
2024/01/26 16:28:21;;;;;;;10.18;2.10;;;;;;;5.13;100.00;101424.75;10472367;28;20048;-80
2024/01/26 16:33:24;;;;;;;6.35;1.52;;;;;;;4.92;100.00;101442.47;10468025;28;20044;-80
2024/01/26 16:38:29;;;;;;;8.95;1.60;;;;;;;5.10;100.00;101444.41;10475738;28;20048;-79
2024/01/26 16:43:32;;;;;;;5.18;1.45;;;;;;;4.66;100.00;101459.47;10472081;28;20044;-79
2024/01/26 16:48:35;;;;;;;9.40;2.10;;;;;;;5.23;100.00;101474.06;10465276;28;20059;-79
2024/01/26 16:53:40;;;;;;;7.43;1.85;;;;;;;5.14;100.00;101469.13;10475591;28;20067;-79
2024/01/26 16:58:43;;;;;;;10.50;1.67;;;;;;;4.96;100.00;101498.19;10492436;28;20166;-79
2024/01/26 17:03:46;;;;;;;11.07;1.48;;;;;;;4.96;100.00;101514.16;10521951;28;20112;-78
2024/01/26 17:08:51;;;;;;;6.05;1.30;;;;;;;5.06;100.00;101514.69;10514145;28;20056;-79
2024/01/26 17:13:54;;;;;;;9.45;1.30;;;;;;;5.25;99.66;101534.34;10493840;28;20055;-78
2024/01/26 17:18:57;;;;;;;12.80;2.13;;;;;;;5.06;99.94;101549.31;10529605;28;20081;-79
2024/01/26 17:24:02;;;;;;;15.73;1.92;;;;;;;5.18;98.27;101561.28;10519472;28;20130;-78
2024/01/26 17:29:05;;;;;;;9.85;2.15;;;;;;;5.30;96.07;101574.13;10517203;28;20622;-78
2024/01/26 17:34:08;;;;;;;8.10;1.90;;;;;;;5.30;96.94;101584.78;10489970;28;20048;-78
2024/01/26 17:39:14;;;;;;;10.48;1.50;;;;;;;5.15;97.36;101582.72;10506666;28;20051;-79
2024/01/26 17:44:19;;;;;;;9.60;1.52;;;;;;;5.67;94.69;101610.81;10480975;28;20507;-80
2024/01/26 17:49:23;;;;;;;11.50;1.80;;;;;;;5.38;95.54;101614.66;10476372;28;20076;-78
2024/01/26 17:54:27;;;;;;;11.10;2.10;;;;;;;4.71;100.00;101615.41;10467480;28;20040;-78
2024/01/26 17:59:32;;;;;;;10.73;2.50;;;;;;;4.80;100.00;101635.50;10441863;28;20056;-78
2024/01/26 18:04:35;;;;;;;13.98;1.40;;;;;;;5.09;100.00;101647.75;10470902;28;20190;-79
2024/01/26 18:09:39;;;;;;;21.73;2.40;;;;;;;5.06;100.00;101654.06;10470686;28;20115;-78
2024/01/26 18:14:42;;;;;;;11.20;2.55;;;;;;;4.58;100.00;101670.00;10483200;28;20052;-78
2024/01/26 18:19:45;;;;;;;10.75;3.13;;;;;;;5.03;100.00;101670.16;10484785;28;20048;-79
2024/01/26 18:24:50;;;;;;;8.55;1.48;;;;;;;4.79;100.00;101676.38;10466474;28;20072;-79
2024/01/26 18:29:53;;;;;;;14.55;1.80;;;;;;;4.90;100.00;101681.28;10463464;28;20051;-78
2024/01/26 18:34:56;;;;;;;16.13;3.67;;;;;;;5.05;100.00;101697.63;10442240;28;20071;-80
2024/01/26 18:40:01;;;;;;;13.90;2.05;;;;;;;5.27;100.00;101711.00;10461296;28;20057;-79
2024/01/26 18:45:04;;;;;;;10.80;2.05;;;;;;;5.22;100.00;101723.63;10454617;28;20040;-79
2024/01/26 18:50:08;;;;;;;13.55;1.55;;;;;;;5.05;100.00;101747.38;10466856;28;20134;-80
2024/01/26 18:55:12;;;;;;;11.93;2.55;;;;;;;5.15;100.00;101742.56;10487478;28;20043;-79
2024/01/26 19:00:18;;;;;;;10.63;2.05;;;;;;;5.10;99.68;101755.16;10474299;28;20071;-78
2024/01/26 19:05:24;;;;;;;17.02;3.72;;;;;;;5.09;97.18;101764.09;10465719;28;20044;-78
2024/01/26 19:10:30;;;;;;;19.10;2.67;;;;;;;5.02;95.68;101784.75;10466733;28;20464;-78
2024/01/26 19:15:35;;;;;;;23.65;2.47;;;;;;;4.67;96.21;101783.28;10463389;28;20048;-80
2024/01/26 19:20:38;;;;;;;13.75;2.10;;;;;;;4.89;93.51;101791.41;10455915;28;20135;-78
2024/01/26 19:25:43;;;;;;;10.82;2.15;;;;;;;4.86;91.89;101796.84;10460796;28;20052;-78
2024/01/26 19:30:45;;;;;;;11.98;2.33;;;;;;;4.83;90.90;101790.69;10479028;28;20102;-78
2024/01/26 19:35:49;;;;;;;22.20;2.60;;;;;;;4.90;88.28;101807.31;10462362;28;20056;-78
2024/01/26 19:40:54;;;;;;;17.10;1.90;;;;;;;4.92;86.08;101815.28;10490796;28;20048;-79
2024/01/26 19:45:57;;;;;;;14.70;1.50;;;;;;;4.78;85.81;101829.91;10497814;28;20454;-78
2024/01/26 19:51:04;;;;;;;10.48;2.17;;;;;;;4.85;85.92;101827.91;10509344;28;20044;-78
2024/01/26 19:56:10;;;;;;;24.25;3.00;;;;;;;5.16;85.78;101834.88;10516181;28;20055;-78
2024/01/26 20:01:14;;;;;;;9.75;2.45;;;;;;;4.72;85.31;101845.25;10489678;28;20527;-78
2024/01/26 20:06:17;;;;;;;17.92;3.47;;;;;;;4.73;86.14;101849.63;10474602;28;20543;-78
2024/01/26 20:11:22;;;;;;;13.38;2.80;;;;;;;4.39;86.29;101843.63;10474301;28;20081;-79
2024/01/26 20:16:25;;;;;;;17.52;2.97;;;;;;;4.57;86.09;101849.25;10494742;28;20054;-79
2024/01/26 20:21:29;;;;;;;18.73;3.28;;;;;;;4.73;87.53;101852.28;10452540;28;20048;-78
2024/01/26 20:26:33;;;;;;;20.00;3.40;;;;;;;4.52;88.40;101848.53;10446862;28;20548;-78
2024/01/26 20:31:36;;;;;;;23.50;3.55;;;;;;;4.30;88.68;101862.53;10464896;28;21148;-78
2024/01/26 20:36:40;;;;;;;20.23;2.58;;;;;;;4.16;89.54;101868.28;10461278;28;20139;-78
2024/01/26 20:41:46;;;;;;;25.48;2.90;;;;;;;4.46;87.79;101870.91;10470594;28;20053;-78
2024/01/26 20:46:49;;;;;;;20.75;2.05;;;;;;;4.31;86.40;101882.91;10465037;28;20056;-78
2024/01/26 20:51:52;;;;;;;20.73;3.03;;;;;;;4.48;85.62;101898.34;10451762;28;20044;-78
2024/01/26 20:56:57;;;;;;;25.67;3.17;;;;;;;4.47;85.95;101898.38;10466199;28;20048;-78
2024/01/26 21:02:01;;;;;;;11.05;2.65;;;;;;;4.81;82.41;101899.03;10474396;28;20094;-77
2024/01/26 21:07:04;;;;;;;18.50;3.15;;;;;;;4.57;85.42;101916.66;10453959;28;20052;-78
2024/01/26 21:12:09;;;;;;;25.90;3.13;;;;;;;4.48;84.96;101924.09;10456082;28;20538;-78
2024/01/26 21:17:12;;;;;;;15.50;3.00;;;;;;;4.78;83.12;101927.56;10453742;28;20584;-78
2024/01/26 21:22:15;;;;;;;12.73;2.50;;;;;;;4.52;82.46;101918.59;10473786;28;20812;-78
2024/01/26 21:27:19;;;;;;;21.13;3.13;;;;;;;4.41;85.70;101931.38;10467092;28;20048;-77
2024/01/26 21:32:22;;;;;;;24.50;4.05;;;;;;;4.48;85.35;101942.72;10459463;28;20051;-78
2024/01/26 21:37:25;;;;;;;21.50;3.90;;;;;;;4.20;89.26;101946.22;10465753;28;20051;-77
2024/01/26 21:42:30;;;;;;;24.10;3.67;;;;;;;4.57;87.71;101937.09;10480779;28;20048;-77
2024/01/26 21:47:33;;;;;;;21.90;3.10;;;;;;;4.63;87.34;101955.53;10458313;28;20048;-78
2024/01/26 21:52:39;;;;;;;15.70;2.88;;;;;;;4.46;89.10;101958.72;10489209;28;20102;-77
2024/01/26 21:57:44;;;;;;;17.83;3.10;;;;;;;4.43;90.52;101949.97;10485491;28;20110;-78
2024/01/26 22:02:48;;;;;;;24.58;3.58;;;;;;;4.39;90.05;101957.19;10451375;28;20041;-77
2024/01/26 22:07:51;;;;;;;29.55;4.72;;;;;;;4.63;88.69;101958.19;10463519;28;20499;-78
2024/01/26 22:12:55;;;;;;;27.90;4.07;;;;;;;4.21;92.02;101960.38;10502999;28;20186;-78
2024/01/26 22:17:58;;;;;;;23.17;3.70;;;;;;;4.26;91.90;101961.13;10482401;28;20511;-78
2024/01/26 22:23:01;;;;;;;23.20;6.22;;;;;;;4.49;90.30;101965.72;10493236;28;20040;-77
2024/01/26 22:28:06;;;;;;;25.63;4.28;;;;;;;4.08;92.69;101981.13;10485939;28;20078;-77
2024/01/26 22:33:09;;;;;;;26.00;3.22;;;;;;;4.29;92.66;101979.66;10484686;28;20052;-78
2024/01/26 22:38:12;;;;;;;21.35;2.75;;;;;;;4.04;94.56;101988.34;10478212;28;20044;-77
2024/01/26 22:43:17;;;;;;;19.48;2.80;;;;;;;3.84;96.88;101988.00;10488929;28;20051;-77
2024/01/26 22:48:21;;;;;;;20.95;3.67;;;;;;;3.47;99.75;101989.84;10495203;28;20039;-77
2024/01/26 22:53:24;;;;;;;29.83;3.42;;;;;;;3.85;95.86;101981.78;10478539;28;20044;-79
2024/01/26 22:58:29;;;;;;;26.70;3.75;;;;;;;3.25;100.00;101988.66;10459628;28;20039;-78
2024/01/26 23:03:32;;;;;;;15.00;2.97;;;;;;;3.73;97.46;101994.50;10449881;28;20048;-78
2024/01/26 23:08:35;;;;;;;25.85;4.72;;;;;;;3.68;97.33;101998.19;10464305;28;20080;-78